createdAt,value
2019-03-17T00:00:36.553Z,12.00
2019-03-17T00:01:36.547Z,12.00
2019-03-17T00:02:36.534Z,12.00
2019-03-17T00:03:36.530Z,12.00
2019-03-17T00:04:36.553Z,12.00
2019-03-17T00:05:36.506Z,12.00
2019-03-17T00:06:36.494Z,12.00
2019-03-17T00:07:36.485Z,12.00
2019-03-17T00:08:36.468Z,12.00
2019-03-17T00:09:36.457Z,12.00
2019-03-17T00:10:36.456Z,12.00
2019-03-17T00:11:36.439Z,12.00
2019-03-17T00:12:36.431Z,12.00
2019-03-17T00:13:36.423Z,12.00
2019-03-17T00:14:36.414Z,12.00
2019-03-17T00:15:36.401Z,12.00
2019-03-17T00:16:36.382Z,12.00
2019-03-17T00:17:36.373Z,12.00
2019-03-17T00:18:36.365Z,12.00
2019-03-17T00:19:48.338Z,12.00
2019-03-17T00:20:36.359Z,12.00
2019-03-17T00:21:36.336Z,12.00
2019-03-17T00:22:36.331Z,12.00
2019-03-17T00:23:36.332Z,12.00
2019-03-17T00:24:36.302Z,12.00
2019-03-17T00:25:36.295Z,12.00
2019-03-17T00:26:36.327Z,12.00
2019-03-17T00:27:36.274Z,12.00
2019-03-17T00:28:36.254Z,12.00
2019-03-17T00:29:36.245Z,12.00
2019-03-17T00:30:36.234Z,12.00
2019-03-17T00:31:36.234Z,12.00
2019-03-17T00:32:36.261Z,12.00
2019-03-17T00:33:36.566Z,12.00
2019-03-17T00:34:44.190Z,12.00
2019-03-17T00:35:37.181Z,12.00
2019-03-17T00:36:36.180Z,12.00
2019-03-17T00:37:36.173Z,12.00
2019-03-17T00:38:36.165Z,12.00
2019-03-17T00:39:36.143Z,12.00
2019-03-17T00:40:36.145Z,12.00
2019-03-17T00:41:36.132Z,12.00
2019-03-17T00:42:36.111Z,12.00
2019-03-17T00:43:36.125Z,12.00
2019-03-17T00:44:36.091Z,12.00
2019-03-17T00:45:36.078Z,12.00
2019-03-17T00:46:36.074Z,12.00
2019-03-17T00:47:36.057Z,12.00
2019-03-17T00:48:36.048Z,12.00
2019-03-17T00:49:36.080Z,12.00
2019-03-17T00:50:48.954Z,12.00
2019-03-17T00:51:36.020Z,12.00
2019-03-17T00:52:36.006Z,12.00
2019-03-17T00:53:36.001Z,12.00
2019-03-17T00:54:35.986Z,12.00
2019-03-17T00:55:36.021Z,12.00
2019-03-17T00:56:35.966Z,12.00
2019-03-17T00:57:35.955Z,12.00
2019-03-17T00:58:35.949Z,12.00
2019-03-17T00:59:35.928Z,12.00
2019-03-17T01:00:35.923Z,12.00
2019-03-17T01:01:35.918Z,12.00
2019-03-17T01:02:35.899Z,12.00
2019-03-17T01:03:35.907Z,12.00
2019-03-17T01:04:35.878Z,12.00
2019-03-17T01:05:35.865Z,12.00
2019-03-17T01:06:35.905Z,12.00
2019-03-17T01:07:35.847Z,12.00
2019-03-17T01:08:35.838Z,12.00
2019-03-17T01:09:35.836Z,12.00
2019-03-17T01:10:35.813Z,12.00
2019-03-17T01:11:35.801Z,12.00
2019-03-17T01:12:35.837Z,12.00
2019-03-17T01:13:35.868Z,12.00
2019-03-17T01:14:35.772Z,12.00
2019-03-17T01:15:35.763Z,12.00
2019-03-17T01:16:35.751Z,12.00
2019-03-17T01:17:35.739Z,12.00
2019-03-17T01:18:35.762Z,12.00
2019-03-17T01:19:35.718Z,12.00
2019-03-17T01:20:35.706Z,12.00
2019-03-17T01:21:46.642Z,12.00
2019-03-17T01:22:35.722Z,12.00
2019-03-17T01:23:35.679Z,12.00
2019-03-17T01:24:35.681Z,12.00
2019-03-17T01:25:36.366Z,12.00
2019-03-17T01:26:35.657Z,12.00
2019-03-17T01:27:35.641Z,12.00
2019-03-17T01:28:35.635Z,12.00
2019-03-17T01:29:35.660Z,12.00
2019-03-17T01:30:35.610Z,12.00
2019-03-17T01:31:35.596Z,12.00
2019-03-17T01:32:35.581Z,12.00
2019-03-17T01:33:35.570Z,12.00
2019-03-17T01:34:35.572Z,12.00
2019-03-17T01:35:35.573Z,12.00
2019-03-17T01:36:35.540Z,12.00
2019-03-17T01:37:35.535Z,12.00
2019-03-17T01:38:35.517Z,12.00
2019-03-17T01:39:35.510Z,12.00
2019-03-17T01:40:35.507Z,12.00
2019-03-17T01:41:35.503Z,12.00
2019-03-17T01:42:35.482Z,12.00
2019-03-17T01:43:35.465Z,12.00
2019-03-17T01:44:35.459Z,12.00
2019-03-17T01:45:35.448Z,12.00
2019-03-17T01:46:35.489Z,12.00
2019-03-17T01:47:35.423Z,12.00
2019-03-17T01:48:35.417Z,12.00
2019-03-17T01:49:35.410Z,12.00
2019-03-17T01:50:35.396Z,12.00
2019-03-17T01:51:35.387Z,12.00
2019-03-17T01:52:46.409Z,12.00
2019-03-17T01:53:35.366Z,12.00
2019-03-17T01:54:35.357Z,12.00
2019-03-17T01:55:35.346Z,12.00
2019-03-17T01:56:35.343Z,12.00
2019-03-17T01:57:35.365Z,12.00
2019-03-17T01:58:35.311Z,12.00
2019-03-17T01:59:35.309Z,12.00
2019-03-17T02:00:35.299Z,12.00
2019-03-17T02:01:35.287Z,12.00
2019-03-17T02:02:35.267Z,12.00
2019-03-17T02:03:35.266Z,12.00
2019-03-17T02:04:35.251Z,12.00
2019-03-17T02:05:35.234Z,12.00
2019-03-17T02:06:35.226Z,12.00
2019-03-17T02:07:35.217Z,12.00
2019-03-17T02:08:35.221Z,12.00
2019-03-17T02:09:35.200Z,12.00
2019-03-17T02:10:35.195Z,12.00
2019-03-17T02:11:35.187Z,12.00
2019-03-17T02:12:35.168Z,12.00
2019-03-17T02:13:35.149Z,12.00
2019-03-17T02:14:35.152Z,12.00
2019-03-17T02:15:35.129Z,12.00
2019-03-17T02:16:35.119Z,12.00
2019-03-17T02:17:35.121Z,12.00
2019-03-17T02:18:35.100Z,12.00
2019-03-17T02:19:35.105Z,12.00
2019-03-17T02:20:35.082Z,12.00
2019-03-17T02:21:35.065Z,12.00
2019-03-17T02:22:35.056Z,12.00
2019-03-17T02:23:45.612Z,12.00
2019-03-17T02:24:35.039Z,12.00
2019-03-17T02:25:35.031Z,12.00
2019-03-17T02:26:35.030Z,12.00
2019-03-17T02:27:35.004Z,12.00
2019-03-17T02:28:35.010Z,12.00
2019-03-17T02:29:34.990Z,12.00
2019-03-17T02:30:35.014Z,12.00
2019-03-17T02:31:34.977Z,12.00
2019-03-17T02:32:34.962Z,12.00
2019-03-17T02:33:34.939Z,12.00
2019-03-17T02:34:34.932Z,12.00
2019-03-17T02:35:39.612Z,12.00
2019-03-17T02:36:35.925Z,12.00
2019-03-17T02:37:34.900Z,12.00
2019-03-17T02:38:34.888Z,12.00
2019-03-17T02:39:34.875Z,12.00
2019-03-17T02:40:34.865Z,12.00
2019-03-17T02:41:34.853Z,12.00
2019-03-17T02:42:34.895Z,12.00
2019-03-17T02:43:34.845Z,12.00
2019-03-17T02:44:34.822Z,12.00
2019-03-17T02:45:34.813Z,12.00
2019-03-17T02:46:34.802Z,12.00
2019-03-17T02:47:34.797Z,12.00
2019-03-17T02:48:34.794Z,12.00
2019-03-17T02:49:34.776Z,12.00
2019-03-17T02:50:34.767Z,12.00
2019-03-17T02:51:34.771Z,12.00
2019-03-17T02:52:34.745Z,12.00
2019-03-17T02:53:34.765Z,12.00
2019-03-17T02:54:47.110Z,12.00
2019-03-17T02:55:34.715Z,12.00
2019-03-17T02:56:34.706Z,12.00
2019-03-17T02:57:34.695Z,12.00
2019-03-17T02:58:34.684Z,12.00
2019-03-17T02:59:34.702Z,12.00
2019-03-17T03:00:34.656Z,12.00
2019-03-17T03:01:34.659Z,12.00
2019-03-17T03:02:34.634Z,12.00
2019-03-17T03:03:34.622Z,12.00
2019-03-17T03:04:34.617Z,12.00
2019-03-17T03:05:34.658Z,12.00
2019-03-17T03:06:34.605Z,12.00
2019-03-17T03:07:34.692Z,12.00
2019-03-17T03:08:34.577Z,12.00
2019-03-17T03:09:34.562Z,12.00
2019-03-17T03:10:34.550Z,12.00
2019-03-17T03:11:34.574Z,12.00
2019-03-17T03:12:34.540Z,12.00
2019-03-17T03:13:34.522Z,12.00
2019-03-17T03:14:34.513Z,12.00
2019-03-17T03:15:34.503Z,12.00
2019-03-17T03:16:34.485Z,12.00
2019-03-17T03:17:34.491Z,12.00
2019-03-17T03:18:34.483Z,12.00
2019-03-17T03:19:34.459Z,12.00
2019-03-17T03:20:34.450Z,12.00
2019-03-17T03:21:34.438Z,12.00
2019-03-17T03:22:34.464Z,12.00
2019-03-17T03:23:34.417Z,12.00
2019-03-17T03:24:34.411Z,12.00
2019-03-17T03:25:44.987Z,12.00
2019-03-17T03:26:34.381Z,12.00
2019-03-17T03:27:34.391Z,12.00
2019-03-17T03:28:34.384Z,12.00
2019-03-17T03:29:34.358Z,12.00
2019-03-17T03:30:34.347Z,12.00
2019-03-17T03:31:34.329Z,12.00
2019-03-17T03:32:34.317Z,12.00
2019-03-17T03:33:34.323Z,12.00
2019-03-17T03:34:34.309Z,12.00
2019-03-17T03:35:34.303Z,12.00
2019-03-17T03:36:34.282Z,16.00
2019-03-17T03:37:34.964Z,16.00
2019-03-17T03:38:34.258Z,16.00
2019-03-17T03:39:34.283Z,16.00
2019-03-17T03:40:34.247Z,16.00
2019-03-17T03:41:34.227Z,12.00
2019-03-17T03:42:34.220Z,12.00
2019-03-17T03:43:34.200Z,12.00
2019-03-17T03:44:34.198Z,12.00
2019-03-17T03:45:34.201Z,16.00
2019-03-17T03:46:34.183Z,16.00
2019-03-17T03:47:34.166Z,16.00
2019-03-17T03:48:34.148Z,16.00
2019-03-17T03:49:34.142Z,16.00
2019-03-17T03:50:34.151Z,16.00
2019-03-17T03:51:34.126Z,16.00
2019-03-17T03:52:34.122Z,20.00
2019-03-17T03:53:34.101Z,16.00
2019-03-17T03:54:34.095Z,20.00
2019-03-17T03:55:34.076Z,16.00
2019-03-17T03:56:45.559Z,20.00
2019-03-17T03:57:34.066Z,20.00
2019-03-17T03:58:34.052Z,24.00
2019-03-17T03:59:34.042Z,24.00
2019-03-17T04:00:34.035Z,28.00
2019-03-17T04:01:34.037Z,28.00
2019-03-17T04:02:34.016Z,28.00
2019-03-17T04:03:33.993Z,32.00
2019-03-17T04:04:33.979Z,36.00
2019-03-17T04:05:33.971Z,32.00
2019-03-17T04:06:33.969Z,40.00
2019-03-17T04:07:33.958Z,40.00
2019-03-17T04:08:33.957Z,44.00
2019-03-17T04:09:33.954Z,44.00
2019-03-17T04:10:33.918Z,48.00
2019-03-17T04:11:33.911Z,52.00
2019-03-17T04:12:33.899Z,52.00
2019-03-17T04:13:33.935Z,56.00
2019-03-17T04:14:33.877Z,60.00
2019-03-17T04:15:33.879Z,64.00
2019-03-17T04:16:33.867Z,68.00
2019-03-17T04:17:33.845Z,72.00
2019-03-17T04:18:33.834Z,80.00
2019-03-17T04:19:33.877Z,84.00
2019-03-17T04:20:33.821Z,92.00
2019-03-17T04:21:33.815Z,100.00
2019-03-17T04:22:33.790Z,108.00
2019-03-17T04:23:33.781Z,116.00
2019-03-17T04:24:33.768Z,124.00
2019-03-17T04:25:33.769Z,136.00
2019-03-17T04:26:33.747Z,152.00
2019-03-17T04:27:44.125Z,160.00
2019-03-17T04:28:33.725Z,160.00
2019-03-17T04:29:33.721Z,164.00
2019-03-17T04:30:33.748Z,180.00
2019-03-17T04:31:33.711Z,192.00
2019-03-17T04:32:33.690Z,200.00
2019-03-17T04:33:33.682Z,208.00
2019-03-17T04:34:33.678Z,216.00
2019-03-17T04:35:33.658Z,224.00
2019-03-17T04:36:40.063Z,232.00
2019-03-17T04:37:34.631Z,244.00
2019-03-17T04:38:33.622Z,252.00
2019-03-17T04:39:33.619Z,256.00
2019-03-17T04:40:33.605Z,268.00
2019-03-17T04:41:33.594Z,280.00
2019-03-17T04:42:33.624Z,296.00
2019-03-17T04:43:33.568Z,320.00
2019-03-17T04:44:33.561Z,336.00
2019-03-17T04:45:33.560Z,360.00
2019-03-17T04:46:33.541Z,376.00
2019-03-17T04:47:33.532Z,392.00
2019-03-17T04:48:33.537Z,416.00
2019-03-17T04:49:33.508Z,420.00
2019-03-17T04:50:33.500Z,420.00
2019-03-17T04:51:33.503Z,444.00
2019-03-17T04:52:33.474Z,460.00
2019-03-17T04:53:33.465Z,464.00
2019-03-17T04:54:33.472Z,452.00
2019-03-17T04:55:33.448Z,452.00
2019-03-17T04:56:33.436Z,460.00
2019-03-17T04:57:33.425Z,472.00
2019-03-17T04:58:43.407Z,484.00
2019-03-17T04:59:33.404Z,516.00
2019-03-17T05:00:33.398Z,532.00
2019-03-17T05:01:33.390Z,564.00
2019-03-17T05:02:33.369Z,592.00
2019-03-17T05:03:33.364Z,628.00
2019-03-17T05:04:33.367Z,656.00
2019-03-17T05:05:33.336Z,684.00
2019-03-17T05:06:34.088Z,716.00
2019-03-17T05:07:33.321Z,720.00
2019-03-17T05:08:33.306Z,728.00
2019-03-17T05:09:33.296Z,732.00
2019-03-17T05:10:33.328Z,724.00
2019-03-17T05:11:33.285Z,736.00
2019-03-17T05:12:33.267Z,792.00
2019-03-17T05:13:33.258Z,860.00
2019-03-17T05:14:33.249Z,880.00
2019-03-17T05:15:33.320Z,872.00
2019-03-17T05:16:35.719Z,896.00
2019-03-17T05:17:33.230Z,888.00
2019-03-17T05:18:33.205Z,908.00
2019-03-17T05:19:33.193Z,884.00
2019-03-17T05:20:33.178Z,888.00
2019-03-17T05:21:33.175Z,940.00
2019-03-17T05:22:33.182Z,996.00
2019-03-17T05:23:33.155Z,1036.00
2019-03-17T05:24:33.141Z,1032.00
2019-03-17T05:25:33.197Z,1068.00
2019-03-17T05:26:33.114Z,1060.00
2019-03-17T05:27:33.107Z,1120.00
2019-03-17T05:28:33.105Z,1128.00
2019-03-17T05:29:43.952Z,1176.00
2019-03-17T05:30:33.074Z,1188.00
2019-03-17T05:31:33.065Z,1204.00
2019-03-17T05:32:33.056Z,1332.00
2019-03-17T05:33:33.062Z,1388.00
2019-03-17T05:34:33.045Z,1452.00
2019-03-17T05:35:33.024Z,1488.00
2019-03-17T05:36:33.022Z,1576.00
2019-03-17T05:37:33.013Z,1568.00
2019-03-17T05:38:32.992Z,1556.00
2019-03-17T05:39:33.017Z,1576.00
2019-03-17T05:40:32.973Z,1548.00
2019-03-17T05:41:32.955Z,1576.00
2019-03-17T05:42:32.957Z,1632.00
2019-03-17T05:43:32.938Z,1584.00
2019-03-17T05:44:32.930Z,1544.00
2019-03-17T05:45:32.935Z,1660.00
2019-03-17T05:46:32.904Z,1680.00
2019-03-17T05:47:32.894Z,1700.00
2019-03-17T05:48:32.894Z,1640.00
2019-03-17T05:49:32.960Z,1668.00
2019-03-17T05:50:32.869Z,1664.00
2019-03-17T05:51:32.858Z,1708.00
2019-03-17T05:52:32.846Z,1708.00
2019-03-17T05:53:32.831Z,1820.00
2019-03-17T05:54:32.827Z,1876.00
2019-03-17T05:55:32.825Z,1964.00
2019-03-17T05:56:32.806Z,2000.00
2019-03-17T05:57:32.793Z,2000.00
2019-03-17T05:58:32.779Z,2040.00
2019-03-17T05:59:32.769Z,1972.00
2019-03-17T06:00:43.337Z,1972.00
2019-03-17T06:01:32.758Z,1988.00
2019-03-17T06:02:32.740Z,1908.00
2019-03-17T06:03:32.725Z,1860.00
2019-03-17T06:04:32.754Z,1832.00
2019-03-17T06:05:32.706Z,1824.00
2019-03-17T06:06:32.695Z,1840.00
2019-03-17T06:07:32.688Z,1760.00
2019-03-17T06:08:33.792Z,1920.00
2019-03-17T06:09:32.664Z,1884.00
2019-03-17T06:10:32.659Z,1840.00
2019-03-17T06:11:32.640Z,1768.00
2019-03-17T06:12:32.637Z,1812.00
2019-03-17T06:13:32.656Z,1812.00
2019-03-17T06:14:32.609Z,1872.00
2019-03-17T06:15:32.600Z,1920.00
2019-03-17T06:16:32.584Z,2052.00
2019-03-17T06:17:32.578Z,2132.00
2019-03-17T06:18:32.583Z,2144.00
2019-03-17T06:19:32.594Z,2300.00
2019-03-17T06:20:32.548Z,2364.00
2019-03-17T06:21:32.540Z,2392.00
2019-03-17T06:22:32.525Z,2416.00
2019-03-17T06:23:32.516Z,2504.00
2019-03-17T06:24:32.514Z,2544.00
2019-03-17T06:25:32.535Z,2580.00
2019-03-17T06:26:32.483Z,2512.00
2019-03-17T06:27:32.471Z,2420.00
2019-03-17T06:28:32.464Z,2400.00
2019-03-17T06:29:32.457Z,2464.00
2019-03-17T06:30:32.455Z,2508.00
2019-03-17T06:31:43.184Z,2532.00
2019-03-17T06:32:32.419Z,2520.00
2019-03-17T06:33:32.412Z,2584.00
2019-03-17T06:34:32.398Z,2604.00
2019-03-17T06:35:32.399Z,2520.00
2019-03-17T06:36:32.380Z,2720.00
2019-03-17T06:37:32.551Z,2716.00
2019-03-17T06:38:32.360Z,2980.00
2019-03-17T06:39:32.344Z,3136.00
2019-03-17T06:40:32.333Z,3356.00
2019-03-17T06:41:32.324Z,3588.00
2019-03-17T06:42:32.311Z,3764.00
2019-03-17T06:43:32.326Z,4144.00
2019-03-17T06:44:32.294Z,4316.00
2019-03-17T06:45:32.283Z,4268.00
2019-03-17T06:46:32.312Z,4304.00
2019-03-17T06:47:32.261Z,4456.00
2019-03-17T06:48:32.248Z,4252.00
2019-03-17T06:49:32.249Z,4188.00
2019-03-17T06:50:32.228Z,4072.00
2019-03-17T06:51:32.219Z,4244.00
2019-03-17T06:52:32.247Z,4388.00
2019-03-17T06:53:32.197Z,4332.00
2019-03-17T06:54:32.192Z,4500.00
2019-03-17T06:55:32.187Z,4360.00
2019-03-17T06:56:32.166Z,4568.00
2019-03-17T06:57:32.158Z,4796.00
2019-03-17T06:58:32.185Z,5016.00
2019-03-17T06:59:32.131Z,5092.00
2019-03-17T07:00:32.121Z,5184.00
2019-03-17T07:01:32.124Z,5184.00
2019-03-17T07:02:44.105Z,5072.00
2019-03-17T07:03:32.091Z,5116.00
2019-03-17T07:04:32.089Z,5116.00
2019-03-17T07:05:32.067Z,4900.00
2019-03-17T07:06:32.060Z,4768.00
2019-03-17T07:07:43.367Z,4892.00
2019-03-17T07:08:33.034Z,4796.00
2019-03-17T07:09:32.054Z,4704.00
2019-03-17T07:10:32.023Z,4904.00
2019-03-17T07:11:32.010Z,4732.00
2019-03-17T07:12:31.999Z,4664.00
2019-03-17T07:13:31.988Z,4688.00
2019-03-17T07:14:31.980Z,4772.00
2019-03-17T07:15:31.976Z,4720.00
2019-03-17T07:16:31.963Z,4656.00
2019-03-17T07:17:31.940Z,4576.00
2019-03-17T07:18:32.015Z,4516.00
2019-03-17T07:19:31.920Z,4364.00
2019-03-17T07:20:31.943Z,4356.00
2019-03-17T07:21:31.904Z,4120.00
2019-03-17T07:22:31.892Z,4180.00
2019-03-17T07:23:34.190Z,4180.00
2019-03-17T07:24:31.864Z,4376.00
2019-03-17T07:25:31.855Z,4420.00
2019-03-17T07:26:31.877Z,4468.00
2019-03-17T07:27:31.839Z,4540.00
2019-03-17T07:28:31.831Z,4520.00
2019-03-17T07:29:31.820Z,4800.00
2019-03-17T07:30:31.814Z,4984.00
2019-03-17T07:31:31.793Z,4996.00
2019-03-17T07:32:31.807Z,5196.00
2019-03-17T07:33:42.296Z,5320.00
2019-03-17T07:34:31.765Z,5368.00
2019-03-17T07:35:31.751Z,5544.00
2019-03-17T07:36:31.743Z,5484.00
2019-03-17T07:37:31.733Z,5468.00
2019-03-17T07:38:31.748Z,5612.00
2019-03-17T07:39:31.704Z,5628.00
2019-03-17T07:40:31.694Z,5900.00
2019-03-17T07:41:31.689Z,5896.00
2019-03-17T07:42:32.694Z,6136.00
2019-03-17T07:43:31.675Z,6092.00
2019-03-17T07:44:31.654Z,6116.00
2019-03-17T07:45:31.647Z,6124.00
2019-03-17T07:46:31.629Z,6308.00
2019-03-17T07:47:31.628Z,6108.00
2019-03-17T07:48:31.622Z,6044.00
2019-03-17T07:49:31.617Z,6084.00
2019-03-17T07:50:31.593Z,5892.00
2019-03-17T07:51:31.578Z,5984.00
2019-03-17T07:52:31.572Z,5928.00
2019-03-17T07:53:31.561Z,5752.00
2019-03-17T07:54:31.592Z,5740.00
2019-03-17T07:55:31.536Z,5472.00
2019-03-17T07:56:31.528Z,5256.00
2019-03-17T07:57:31.513Z,5656.00
2019-03-17T07:58:31.508Z,5740.00
2019-03-17T07:59:31.502Z,5680.00
2019-03-17T08:00:32.478Z,5696.00
2019-03-17T08:01:31.626Z,5656.00
2019-03-17T08:02:31.465Z,5432.00
2019-03-17T08:03:31.457Z,5384.00
2019-03-17T08:04:43.109Z,5608.00
2019-03-17T08:05:31.429Z,5580.00
2019-03-17T08:06:31.425Z,5544.00
2019-03-17T08:07:31.408Z,5692.00
2019-03-17T08:08:31.475Z,5868.00
2019-03-17T08:09:31.395Z,5996.00
2019-03-17T08:10:31.377Z,6056.00
2019-03-17T08:11:31.406Z,6040.00
2019-03-17T08:12:31.360Z,5964.00
2019-03-17T08:13:31.351Z,5908.00
2019-03-17T08:14:31.336Z,5768.00
2019-03-17T08:15:31.328Z,5700.00
2019-03-17T08:16:31.311Z,5688.00
2019-03-17T08:17:31.309Z,5620.00
2019-03-17T08:18:31.295Z,5824.00
2019-03-17T08:19:31.290Z,5588.00
2019-03-17T08:20:31.278Z,5776.00
2019-03-17T08:21:31.258Z,6012.00
2019-03-17T08:22:31.261Z,5960.00
2019-03-17T08:23:31.246Z,5944.00
2019-03-17T08:24:31.246Z,6092.00
2019-03-17T08:25:31.219Z,6216.00
2019-03-17T08:26:31.220Z,6732.00
2019-03-17T08:27:31.198Z,6464.00
2019-03-17T08:28:31.208Z,6416.00
2019-03-17T08:29:31.179Z,6400.00
2019-03-17T08:30:31.167Z,6436.00
2019-03-17T08:31:31.156Z,6340.00
2019-03-17T08:32:31.140Z,6472.00
2019-03-17T08:33:31.134Z,6888.00
2019-03-17T08:34:31.129Z,6736.00
2019-03-17T08:35:41.302Z,6760.00
2019-03-17T08:36:31.103Z,6780.00
2019-03-17T08:37:31.089Z,6636.00
2019-03-17T08:38:31.080Z,6532.00
2019-03-17T08:39:31.071Z,6716.00
2019-03-17T08:40:31.064Z,7208.00
2019-03-17T08:41:31.058Z,7120.00
2019-03-17T08:42:31.041Z,7260.00
2019-03-17T08:43:31.035Z,7588.00
2019-03-17T08:44:31.021Z,8024.00
2019-03-17T08:45:31.013Z,6792.00
2019-03-17T08:46:31.007Z,6404.00
2019-03-17T08:47:30.985Z,6072.00
2019-03-17T08:48:30.967Z,6040.00
2019-03-17T08:49:30.960Z,6264.00
2019-03-17T08:50:30.954Z,6512.00
2019-03-17T08:51:31.081Z,6416.00
2019-03-17T08:52:34.102Z,6264.00
2019-03-17T08:53:30.924Z,5924.00
2019-03-17T08:54:30.910Z,6192.00
2019-03-17T08:55:30.901Z,6248.00
2019-03-17T08:56:30.900Z,6368.00
2019-03-17T08:57:30.880Z,6776.00
2019-03-17T08:58:30.872Z,6760.00
2019-03-17T08:59:30.852Z,6496.00
2019-03-17T09:00:30.840Z,6532.00
2019-03-17T09:01:30.840Z,7048.00
2019-03-17T09:02:30.825Z,7032.00
2019-03-17T09:03:30.860Z,6676.00
2019-03-17T09:04:30.805Z,6572.00
2019-03-17T09:05:30.807Z,6612.00
2019-03-17T09:06:40.952Z,6512.00
2019-03-17T09:07:30.767Z,5672.00
2019-03-17T09:08:35.254Z,5260.00
2019-03-17T09:09:30.787Z,5024.00
2019-03-17T09:10:30.748Z,4940.00
2019-03-17T09:11:30.732Z,4712.00
2019-03-17T09:12:30.714Z,4816.00
2019-03-17T09:13:30.714Z,4928.00
2019-03-17T09:14:30.689Z,5152.00
2019-03-17T09:15:30.725Z,5484.00
2019-03-17T09:16:30.672Z,5676.00
2019-03-17T09:17:30.664Z,5996.00
2019-03-17T09:18:30.655Z,5736.00
2019-03-17T09:19:30.641Z,5880.00
2019-03-17T09:20:30.628Z,5672.00
2019-03-17T09:21:30.625Z,5324.00
2019-03-17T09:22:30.607Z,5644.00
2019-03-17T09:23:30.599Z,5384.00
2019-03-17T09:24:30.588Z,5564.00
2019-03-17T09:25:30.577Z,5712.00
2019-03-17T09:26:30.574Z,6096.00
2019-03-17T09:27:30.559Z,6208.00
2019-03-17T09:28:30.540Z,5620.00
2019-03-17T09:29:30.535Z,5420.00
2019-03-17T09:30:30.525Z,5684.00
2019-03-17T09:31:30.519Z,5712.00
2019-03-17T09:32:30.521Z,5900.00
2019-03-17T09:33:30.489Z,6248.00
2019-03-17T09:34:30.484Z,6400.00
2019-03-17T09:35:30.465Z,6388.00
2019-03-17T09:36:32.463Z,6136.00
2019-03-17T09:37:42.342Z,6300.00
2019-03-17T09:38:30.455Z,6052.00
2019-03-17T09:39:30.427Z,6280.00
2019-03-17T09:40:30.414Z,6456.00
2019-03-17T09:41:30.403Z,6500.00
2019-03-17T09:42:30.394Z,6244.00
2019-03-17T09:43:30.428Z,5920.00
2019-03-17T09:44:30.369Z,5832.00
2019-03-17T09:45:30.366Z,5952.00
2019-03-17T09:46:30.357Z,5852.00
2019-03-17T09:47:30.356Z,6124.00
2019-03-17T09:48:30.332Z,6044.00
2019-03-17T09:49:30.328Z,6004.00
2019-03-17T09:50:30.341Z,6024.00
2019-03-17T09:51:30.297Z,5644.00
2019-03-17T09:52:30.302Z,5640.00
2019-03-17T09:53:30.282Z,5744.00
2019-03-17T09:54:30.266Z,5596.00
2019-03-17T09:55:30.267Z,6128.00
2019-03-17T09:56:30.245Z,6424.00
2019-03-17T09:57:30.234Z,7044.00
2019-03-17T09:58:30.221Z,7080.00
2019-03-17T09:59:30.213Z,6736.00
2019-03-17T10:00:30.256Z,6532.00
2019-03-17T10:01:30.200Z,6320.00
2019-03-17T10:02:30.185Z,6356.00
2019-03-17T10:03:30.174Z,6448.00
2019-03-17T10:04:30.161Z,6324.00
2019-03-17T10:05:30.145Z,6600.00
2019-03-17T10:06:30.147Z,6304.00
2019-03-17T10:07:30.128Z,6300.00
2019-03-17T10:08:42.284Z,6604.00
2019-03-17T10:09:30.108Z,6548.00
2019-03-17T10:10:30.100Z,6956.00
2019-03-17T10:11:30.124Z,7228.00
2019-03-17T10:12:30.079Z,6812.00
2019-03-17T10:13:30.060Z,6820.00
2019-03-17T10:14:30.051Z,7032.00
2019-03-17T10:15:30.045Z,6932.00
2019-03-17T10:16:30.035Z,7172.00
2019-03-17T10:17:30.029Z,7148.00
2019-03-17T10:18:30.013Z,6948.00
2019-03-17T10:19:30.012Z,7316.00
2019-03-17T10:20:29.993Z,7068.00
2019-03-17T10:21:29.984Z,6872.00
2019-03-17T10:22:30.005Z,7104.00
2019-03-17T10:23:29.962Z,7108.00
2019-03-17T10:24:29.944Z,6908.00
2019-03-17T10:25:29.937Z,7412.00
2019-03-17T10:26:29.928Z,7844.00
2019-03-17T10:27:29.919Z,7980.00
2019-03-17T10:28:29.911Z,7480.00
2019-03-17T10:29:29.897Z,6960.00
2019-03-17T10:30:29.883Z,7768.00
2019-03-17T10:31:29.869Z,8220.00
2019-03-17T10:32:29.860Z,9060.00
2019-03-17T10:33:29.867Z,8852.00
2019-03-17T10:34:29.856Z,8284.00
2019-03-17T10:35:29.832Z,8056.00
2019-03-17T10:36:30.049Z,7968.00
2019-03-17T10:37:29.813Z,7616.00
2019-03-17T10:38:29.802Z,7764.00
2019-03-17T10:39:40.097Z,8500.00
2019-03-17T10:40:29.778Z,8668.00
2019-03-17T10:41:29.769Z,8264.00
2019-03-17T10:42:29.772Z,8328.00
2019-03-17T10:43:29.749Z,8044.00
2019-03-17T10:44:29.735Z,7364.00
2019-03-17T10:45:29.740Z,6796.00
2019-03-17T10:46:29.714Z,6328.00
2019-03-17T10:47:29.711Z,6388.00
2019-03-17T10:48:29.730Z,6796.00
2019-03-17T10:49:29.680Z,7504.00
2019-03-17T10:50:29.670Z,7596.00
2019-03-17T10:51:29.661Z,7508.00
2019-03-17T10:52:29.655Z,7336.00
2019-03-17T10:53:29.641Z,6868.00
2019-03-17T10:54:29.655Z,6388.00
2019-03-17T10:55:29.621Z,6348.00
2019-03-17T10:56:29.615Z,5916.00
2019-03-17T10:57:29.596Z,5696.00
2019-03-17T10:58:29.594Z,5780.00
2019-03-17T10:59:29.614Z,5768.00
2019-03-17T11:00:29.572Z,5768.00
2019-03-17T11:01:29.554Z,5908.00
2019-03-17T11:02:29.546Z,5816.00
2019-03-17T11:03:29.533Z,5440.00
2019-03-17T11:04:29.527Z,5272.00
2019-03-17T11:05:29.555Z,5224.00
2019-03-17T11:06:29.506Z,5136.00
2019-03-17T11:07:29.490Z,5404.00
2019-03-17T11:08:29.482Z,5348.00
2019-03-17T11:09:29.468Z,5240.00
2019-03-17T11:10:39.931Z,5216.00
2019-03-17T11:11:29.448Z,5144.00
2019-03-17T11:12:29.444Z,5024.00
2019-03-17T11:13:29.425Z,5192.00
2019-03-17T11:14:29.413Z,5400.00
2019-03-17T11:15:29.422Z,5464.00
2019-03-17T11:16:29.415Z,5392.00
2019-03-17T11:17:29.389Z,5420.00
2019-03-17T11:18:29.382Z,5572.00
2019-03-17T11:19:29.364Z,5756.00
2019-03-17T11:20:29.356Z,5912.00
2019-03-17T11:21:29.347Z,5508.00
2019-03-17T11:22:29.368Z,5148.00
2019-03-17T11:23:29.330Z,4912.00
2019-03-17T11:24:29.315Z,4900.00
2019-03-17T11:25:29.299Z,4972.00
2019-03-17T11:26:29.285Z,4716.00
2019-03-17T11:27:29.283Z,4716.00
2019-03-17T11:28:29.278Z,4736.00
2019-03-17T11:29:29.269Z,4844.00
2019-03-17T11:30:29.244Z,4884.00
2019-03-17T11:31:29.237Z,5248.00
2019-03-17T11:32:29.233Z,5840.00
2019-03-17T11:33:29.222Z,6480.00
2019-03-17T11:34:29.202Z,6412.00
2019-03-17T11:35:29.204Z,6044.00
2019-03-17T11:36:29.182Z,5860.00
2019-03-17T11:37:29.171Z,5832.00
2019-03-17T11:38:29.206Z,6272.00
2019-03-17T11:39:37.720Z,6644.00
2019-03-17T11:40:30.146Z,6476.00
2019-03-17T11:41:39.251Z,6624.00
2019-03-17T11:42:29.158Z,6608.00
2019-03-17T11:43:29.112Z,6576.00
2019-03-17T11:44:29.113Z,6316.00
2019-03-17T11:45:29.091Z,5952.00
2019-03-17T11:46:29.081Z,5916.00
2019-03-17T11:47:29.065Z,5808.00
2019-03-17T11:48:29.061Z,6280.00
2019-03-17T11:49:29.045Z,6528.00
2019-03-17T11:50:29.043Z,5976.00
2019-03-17T11:51:29.021Z,6000.00
2019-03-17T11:52:29.012Z,6216.00
2019-03-17T11:53:29.006Z,5848.00
2019-03-17T11:54:28.991Z,5628.00
2019-03-17T11:55:31.658Z,5352.00
2019-03-17T11:56:28.965Z,5576.00
2019-03-17T11:57:28.960Z,5732.00
2019-03-17T11:58:28.949Z,5776.00
2019-03-17T11:59:28.949Z,5876.00
2019-03-17T12:00:28.939Z,6344.00
2019-03-17T12:01:28.922Z,6452.00
2019-03-17T12:02:28.907Z,6840.00
2019-03-17T12:03:28.893Z,7032.00
2019-03-17T12:04:28.881Z,6960.00
2019-03-17T12:05:28.872Z,6720.00
2019-03-17T12:06:28.906Z,6956.00
2019-03-17T12:07:28.852Z,7292.00
2019-03-17T12:08:28.841Z,7644.00
2019-03-17T12:09:29.662Z,6920.00
2019-03-17T12:10:28.818Z,6448.00
2019-03-17T12:11:28.807Z,6080.00
2019-03-17T12:12:40.001Z,5640.00
2019-03-17T12:13:28.785Z,5464.00
2019-03-17T12:14:28.778Z,5736.00
2019-03-17T12:15:28.767Z,5808.00
2019-03-17T12:16:28.764Z,5892.00
2019-03-17T12:17:28.749Z,5720.00
2019-03-17T12:18:28.771Z,5968.00
2019-03-17T12:19:28.728Z,5760.00
2019-03-17T12:20:28.713Z,6044.00
2019-03-17T12:21:28.699Z,6420.00
2019-03-17T12:22:28.691Z,6532.00
2019-03-17T12:23:28.684Z,6840.00